Terminal Aerodrome Forecast
Issued by NWS

Home | Current Version | Previous Version | Text Only | Print | Product List | Glossary On
Versions: 1 2 3 4 5 6 7 8 9 10 11 12 13 14 15 16 17 18 19 20 21 22 23 24 25 26 27
000
FTUS41 KBOX 010532
TAFACK
TAF
KACK 010532Z 0106/0206 VRB03KT P6SM SCT250
     FM011600 17007KT P6SM SCT050 BKN150
     FM020200 VRB03KT P6SM BKN130=

USA.gov is the U.S. government's official web portal to all federal, state and local government web resources and services.